Time;durP1;ratioP1;P1;durP2;ratioP2;P2;SDS_P1;SDS_P2;PMS_P1;PMS_P2;Temp;Humidity;BMP_temperature;BMP_pressure;BME280_temperature;BME280_humidity;BME280_pressure;Samples;Min_cycle;Max_cycle;Signal;HPM_P1;HPM_P2
2023/11/15 00:01:09;;;;;;;5.65;1.40;;;;;;;10.51;100.00;99265.03;5204522;28;20087;-71
2023/11/15 00:03:39;;;;;;;2.97;1.33;;;;;;;10.56;100.00;99267.41;5189220;28;20163;-74
2023/11/15 00:06:10;;;;;;;4.88;1.38;;;;;;;10.63;100.00;99268.72;5204313;28;20021;-71
2023/11/15 00:08:40;;;;;;;2.67;1.30;;;;;;;10.52;100.00;99277.16;5205193;28;20029;-71
2023/11/15 00:11:10;;;;;;;4.28;1.77;;;;;;;10.63;100.00;99280.03;5190704;28;20378;-72
2023/11/15 00:13:41;;;;;;;3.38;1.20;;;;;;;10.61;100.00;99291.50;5208710;28;20094;-72
2023/11/15 00:16:11;;;;;;;2.63;1.30;;;;;;;10.52;100.00;99286.78;5207756;28;20025;-73
2023/11/15 00:18:42;;;;;;;5.70;1.60;;;;;;;10.54;100.00;99300.59;5190516;28;20121;-73
2023/11/15 00:21:12;;;;;;;4.65;1.50;;;;;;;10.51;100.00;99300.78;5190890;28;20022;-74
2023/11/15 00:23:43;;;;;;;4.82;1.83;;;;;;;10.67;100.00;99306.84;5204584;28;20048;-71
2023/11/15 00:26:13;;;;;;;3.60;1.60;;;;;;;10.51;100.00;99304.22;5207381;28;20045;-74
2023/11/15 00:28:43;;;;;;;3.80;1.67;;;;;;;10.53;100.00;99310.19;5204967;28;20080;-74
2023/11/15 00:31:14;;;;;;;4.25;1.90;;;;;;;10.53;100.00;99312.00;5208597;28;20039;-74
2023/11/15 00:33:44;;;;;;;6.13;1.98;;;;;;;10.51;100.00;99316.47;5206578;28;20517;-74
2023/11/15 00:36:19;;;;;;;3.70;1.88;;;;;;;10.54;100.00;99327.56;5207718;28;20056;-74
2023/11/15 00:38:49;;;;;;;5.35;2.20;;;;;;;10.49;100.00;99326.16;5205889;28;20119;-74
2023/11/15 00:41:20;;;;;;;4.25;2.40;;;;;;;10.41;100.00;99333.53;5206467;28;20025;-75
2023/11/15 00:43:50;;;;;;;6.70;2.88;;;;;;;10.38;100.00;99347.59;5205810;28;20051;-74
2023/11/15 00:46:20;;;;;;;4.80;2.72;;;;;;;10.46;100.00;99345.44;5206402;28;20241;-74
2023/11/15 00:48:50;;;;;;;6.05;2.30;;;;;;;10.43;100.00;99356.06;5204061;28;20571;-74
2023/11/15 00:51:21;;;;;;;6.25;2.50;;;;;;;10.34;100.00;99356.53;5207526;28;20025;-74
2023/11/15 00:53:52;;;;;;;5.05;2.10;;;;;;;10.38;100.00;99363.28;5188155;28;20032;-74
2023/11/15 00:56:22;;;;;;;6.78;2.90;;;;;;;10.38;100.00;99373.72;5206005;28;20562;-74
2023/11/15 00:58:54;;;;;;;6.43;3.00;;;;;;;10.33;100.00;99388.81;5205400;28;20037;-74
2023/11/15 01:01:27;;;;;;;5.00;2.72;;;;;;;10.39;100.00;99385.88;5189582;28;20075;-71
2023/11/15 01:03:58;;;;;;;4.93;2.55;;;;;;;10.48;100.00;99389.75;5205014;28;20499;-74
2023/11/15 01:06:28;;;;;;;5.43;2.42;;;;;;;10.49;100.00;99389.66;5206269;28;20025;-74
2023/11/15 01:08:58;;;;;;;4.45;2.28;;;;;;;10.50;100.00;99393.13;5204880;28;20394;-74
2023/11/15 01:11:29;;;;;;;6.32;2.20;;;;;;;10.56;100.00;99398.00;5206152;28;20028;-74
2023/11/15 01:13:59;;;;;;;5.80;2.25;;;;;;;10.55;100.00;99402.38;5205103;28;20033;-74
2023/11/15 01:16:30;;;;;;;3.67;1.77;;;;;;;10.49;100.00;99402.72;5207480;28;20307;-74
2023/11/15 01:19:00;;;;;;;6.10;1.58;;;;;;;10.46;100.00;99407.25;5205344;28;20114;-74
2023/11/15 01:21:31;;;;;;;9.77;1.90;;;;;;;10.52;100.00;99417.41;5207670;28;20228;-74
2023/11/15 01:24:01;;;;;;;3.95;1.70;;;;;;;10.55;100.00;99428.50;5199370;28;20018;-74
2023/11/15 01:26:31;;;;;;;5.65;1.80;;;;;;;10.55;100.00;99422.44;5200655;28;20140;-74
2023/11/15 01:29:02;;;;;;;7.30;1.60;;;;;;;10.54;100.00;99434.66;5189549;28;20025;-72
2023/11/15 01:31:32;;;;;;;4.35;1.23;;;;;;;10.50;100.00;99437.53;5201248;28;20474;-74
2023/11/15 01:34:02;;;;;;;9.32;1.42;;;;;;;10.52;100.00;99443.53;5189139;28;20026;-73
2023/11/15 01:36:33;;;;;;;5.20;1.70;;;;;;;10.54;100.00;99444.28;5206749;28;20495;-74
2023/11/15 01:39:04;;;;;;;4.22;1.48;;;;;;;10.56;100.00;99448.50;5205242;28;20649;-74
2023/11/15 01:41:34;;;;;;;6.63;1.50;;;;;;;10.56;100.00;99447.66;5207492;28;20029;-74
2023/11/15 01:44:05;;;;;;;6.22;1.90;;;;;;;10.52;100.00;99454.78;5219511;22;20020;-71
2023/11/15 01:46:36;;;;;;;7.40;1.58;;;;;;;10.50;100.00;99461.88;5205405;28;20043;-70
2023/11/15 01:49:06;;;;;;;4.85;1.50;;;;;;;10.53;100.00;99474.75;5186178;28;20120;-71
2023/11/15 01:51:36;;;;;;;7.20;1.40;;;;;;;10.51;100.00;99475.78;5206066;28;20024;-70
2023/11/15 01:54:07;;;;;;;4.03;1.30;;;;;;;10.51;100.00;99483.63;5204492;28;20038;-70
2023/11/15 01:56:39;;;;;;;6.78;1.33;;;;;;;10.44;100.00;99487.47;5206274;28;20118;-70
2023/11/15 01:59:09;;;;;;;8.65;1.90;;;;;;;10.43;100.00;99483.16;5205975;28;20076;-71
2023/11/15 02:01:41;;;;;;;6.38;1.38;;;;;;;10.38;100.00;99483.41;5206264;28;20037;-71
2023/11/15 02:04:11;;;;;;;6.05;1.40;;;;;;;10.36;100.00;99489.66;5206090;28;20033;-71
2023/11/15 02:06:42;;;;;;;7.80;1.85;;;;;;;10.41;100.00;99495.47;5206060;28;20056;-70
2023/11/15 02:09:13;;;;;;;5.78;1.35;;;;;;;10.34;100.00;99491.50;5206366;28;20073;-71
2023/11/15 02:11:44;;;;;;;8.00;1.33;;;;;;;10.41;100.00;99503.31;5206759;28;20611;-70
2023/11/15 02:14:14;;;;;;;7.20;1.45;;;;;;;10.44;100.00;99509.22;5206563;28;20116;-71
2023/11/15 02:16:44;;;;;;;9.30;1.40;;;;;;;10.44;100.00;99503.13;5205819;28;20047;-70
2023/11/15 02:19:15;;;;;;;11.23;1.38;;;;;;;10.38;100.00;99516.53;5206911;28;20072;-71
2023/11/15 02:21:46;;;;;;;7.15;1.27;;;;;;;10.39;100.00;99510.38;5205253;28;20052;-70
2023/11/15 02:24:17;;;;;;;5.97;1.38;;;;;;;10.38;100.00;99512.13;5207183;28;20305;-71
2023/11/15 02:26:47;;;;;;;12.48;1.70;;;;;;;10.46;100.00;99516.97;5206156;28;20501;-71
2023/11/15 02:29:17;;;;;;;4.25;1.00;;;;;;;10.40;100.00;99525.97;5202859;28;20308;-70
2023/11/15 02:31:48;;;;;;;5.57;1.70;;;;;;;10.42;100.00;99521.53;5204876;28;20386;-70
2023/11/15 02:34:18;;;;;;;4.10;1.30;;;;;;;10.47;100.00;99529.09;5204166;28;20032;-70
2023/11/15 02:36:48;;;;;;;2.40;1.08;;;;;;;10.52;100.00;99534.94;5206278;28;20033;-70
2023/11/15 02:39:19;;;;;;;3.97;0.90;;;;;;;10.45;100.00;99544.00;5207414;28;20026;-71
2023/11/15 02:41:50;;;;;;;7.93;1.40;;;;;;;10.45;100.00;99541.38;5187360;28;20098;-70
2023/11/15 02:44:20;;;;;;;5.57;1.40;;;;;;;10.47;100.00;99544.75;5206659;28;20034;-70
2023/11/15 02:46:50;;;;;;;3.03;1.00;;;;;;;10.42;100.00;99552.00;5206393;28;20025;-70
2023/11/15 02:49:20;;;;;;;5.75;1.25;;;;;;;10.46;100.00;99558.75;5192809;28;20087;-71
2023/11/15 02:51:51;;;;;;;4.85;1.23;;;;;;;10.40;100.00;99559.06;5205555;28;20033;-71
2023/11/15 02:54:21;;;;;;;3.53;0.93;;;;;;;10.43;100.00;99565.00;5191586;28;20387;-71
2023/11/15 02:56:51;;;;;;;8.07;1.23;;;;;;;10.40;100.00;99569.53;5205726;28;20029;-70
2023/11/15 02:59:22;;;;;;;5.35;0.93;;;;;;;10.47;100.00;99571.75;5208075;28;20201;-71
2023/11/15 03:01:53;;;;;;;7.38;1.58;;;;;;;10.46;100.00;99575.28;5205516;28;20029;-70
2023/11/15 03:04:23;;;;;;;6.97;1.20;;;;;;;10.41;100.00;99581.66;5207268;28;20049;-71
2023/11/15 03:06:54;;;;;;;9.90;1.42;;;;;;;10.47;100.00;99589.16;5206696;28;20032;-70
2023/11/15 03:09:24;;;;;;;4.97;1.23;;;;;;;10.35;100.00;99603.69;5197628;28;20645;-70
2023/11/15 03:11:54;;;;;;;4.35;1.15;;;;;;;10.44;100.00;99613.69;5203659;28;20029;-70
2023/11/15 03:14:26;;;;;;;8.05;1.83;;;;;;;10.35;100.00;99623.75;5203145;28;20136;-70
2023/11/15 03:17:06;;;;;;;5.63;1.13;;;;;;;10.27;100.00;99625.88;5211228;28;20018;-71
2023/11/15 03:19:36;;;;;;;3.88;1.10;;;;;;;10.17;100.00;99635.09;5211128;28;20025;-71
2023/11/15 03:22:07;;;;;;;4.40;1.20;;;;;;;10.10;100.00;99638.91;5212785;28;20028;-71
2023/11/15 03:24:38;;;;;;;1.10;0.70;;;;;;;10.16;100.00;99649.09;5213325;28;20123;-71
2023/11/15 03:27:09;;;;;;;2.15;0.77;;;;;;;10.04;100.00;99660.09;5214863;28;20499;-71
2023/11/15 03:29:39;;;;;;;0.88;0.70;;;;;;;10.10;100.00;99668.50;5213564;28;20029;-71
2023/11/15 03:32:10;;;;;;;2.28;0.57;;;;;;;10.11;100.00;99664.09;5213397;28;20117;-71
2023/11/15 03:34:41;;;;;;;3.05;0.80;;;;;;;10.02;100.00;99669.78;5211079;28;20489;-70
2023/11/15 03:37:12;;;;;;;1.88;0.82;;;;;;;9.96;100.00;99681.31;5210406;28;20032;-71
2023/11/15 03:39:42;;;;;;;2.35;0.65;;;;;;;9.92;100.00;99678.91;5211169;28;20033;-71
2023/11/15 03:42:13;;;;;;;3.08;0.75;;;;;;;9.96;100.00;99696.16;5209656;28;20025;-71
2023/11/15 03:44:43;;;;;;;1.75;0.80;;;;;;;9.90;100.00;99699.03;5210860;28;20353;-70
2023/11/15 03:47:13;;;;;;;3.22;0.82;;;;;;;9.91;100.00;99703.31;5212265;28;20036;-71
2023/11/15 03:49:44;;;;;;;1.10;0.63;;;;;;;9.84;100.00;99704.53;5210987;28;20447;-71
2023/11/15 03:52:14;;;;;;;1.85;0.88;;;;;;;9.85;100.00;99706.22;5211884;28;20122;-71
2023/11/15 03:54:44;;;;;;;2.65;0.68;;;;;;;9.79;100.00;99714.34;5214289;28;20112;-70
2023/11/15 03:57:14;;;;;;;6.35;1.00;;;;;;;9.73;100.00;99714.63;5214134;28;20021;-71
2023/11/15 03:59:45;;;;;;;1.85;0.80;;;;;;;9.69;100.00;99719.13;5215887;28;20569;-70
2023/11/15 04:02:15;;;;;;;2.80;1.02;;;;;;;9.61;100.00;99728.22;5213700;28;20108;-70
2023/11/15 04:04:46;;;;;;;2.80;0.90;;;;;;;9.68;100.00;99730.47;5213706;28;20067;-70
2023/11/15 04:07:16;;;;;;;1.65;0.90;;;;;;;9.70;100.00;99727.81;5212767;28;20021;-71
2023/11/15 04:09:46;;;;;;;5.30;1.00;;;;;;;9.70;100.00;99733.88;5211036;28;20025;-71
2023/11/15 04:12:17;;;;;;;1.80;1.08;;;;;;;9.67;100.00;99748.81;5209773;28;20029;-70
2023/11/15 04:14:47;;;;;;;2.72;0.82;;;;;;;9.60;100.00;99750.00;5211259;28;20052;-71
2023/11/15 04:17:17;;;;;;;3.05;0.90;;;;;;;9.67;100.00;99754.03;5211340;28;20517;-71
2023/11/15 04:19:48;;;;;;;3.20;0.80;;;;;;;9.67;100.00;99759.25;5208563;28;20033;-70
2023/11/15 04:22:18;;;;;;;1.83;0.80;;;;;;;9.68;100.00;99766.16;5207933;28;20535;-71
2023/11/15 04:24:50;;;;;;;1.00;0.70;;;;;;;9.63;100.00;99773.34;5208626;28;20029;-70
2023/11/15 04:27:20;;;;;;;3.40;1.00;;;;;;;9.58;100.00;99772.69;5211985;28;20394;-71
2023/11/15 04:29:53;;;;;;;1.55;1.00;;;;;;;9.61;100.00;99776.03;5208334;28;20032;-71
2023/11/15 04:32:24;;;;;;;2.60;1.10;;;;;;;9.61;100.00;99783.00;5211422;28;20834;-71
2023/11/15 04:34:54;;;;;;;3.97;0.88;;;;;;;9.51;100.00;99789.53;5207743;28;22425;-70
2023/11/15 04:37:24;;;;;;;5.03;0.90;;;;;;;9.57;100.00;99791.88;5207229;28;20027;-70
2023/11/15 04:39:56;;;;;;;1.58;1.00;;;;;;;9.57;100.00;99794.47;5211463;28;20060;-71
2023/11/15 04:42:27;;;;;;;1.80;1.00;;;;;;;9.53;100.00;99798.16;5213405;28;20032;-70
2023/11/15 04:44:57;;;;;;;2.38;1.00;;;;;;;9.58;100.00;99811.81;5210014;28;20041;-71
2023/11/15 04:47:28;;;;;;;2.90;0.80;;;;;;;9.60;100.00;99808.25;5209441;28;20041;-70
2023/11/15 04:49:58;;;;;;;4.93;1.45;;;;;;;9.62;100.00;99818.63;5209062;28;20044;-71
2023/11/15 04:52:28;;;;;;;6.55;1.30;;;;;;;9.49;100.00;99817.44;5203033;28;20028;-71
2023/11/15 04:54:58;;;;;;;3.20;1.10;;;;;;;9.48;100.00;99820.97;5207781;28;20235;-71
2023/11/15 04:57:29;;;;;;;3.60;1.48;;;;;;;9.60;100.00;99825.63;5211496;28;20033;-70
2023/11/15 04:59:59;;;;;;;2.85;1.35;;;;;;;9.58;100.00;99827.47;5208372;28;20501;-71
2023/11/15 05:02:30;;;;;;;6.65;1.70;;;;;;;9.63;100.00;99831.56;5193629;28;20021;-71
2023/11/15 05:05:00;;;;;;;5.25;1.58;;;;;;;9.57;100.00;99831.00;5203998;28;20169;-70
2023/11/15 05:07:32;;;;;;;4.50;1.58;;;;;;;9.59;100.00;99840.47;5207278;28;20039;-71
2023/11/15 05:10:04;;;;;;;2.40;1.38;;;;;;;9.48;100.00;99844.44;5208274;28;20052;-71
2023/11/15 05:12:36;;;;;;;4.65;2.05;;;;;;;9.53;100.00;99847.69;5209641;28;20478;-70
2023/11/15 05:15:06;;;;;;;4.13;2.25;;;;;;;9.57;100.00;99846.66;5207238;28;20390;-70
2023/11/15 05:17:37;;;;;;;5.40;1.98;;;;;;;9.57;100.00;99851.88;5211816;28;20028;-71
2023/11/15 05:20:07;;;;;;;4.85;1.83;;;;;;;9.52;100.00;99859.03;5207171;28;20091;-71
2023/11/15 05:22:38;;;;;;;3.95;2.05;;;;;;;9.48;100.00;99854.88;5204964;28;20033;-70
2023/11/15 05:25:08;;;;;;;8.32;2.03;;;;;;;9.38;100.00;99861.38;5206907;28;20502;-71
2023/11/15 05:27:39;;;;;;;3.90;1.90;;;;;;;9.45;100.00;99855.03;5210022;28;20024;-71
2023/11/15 05:30:10;;;;;;;5.78;2.17;;;;;;;9.39;100.00;99863.06;5209604;28;20479;-70
2023/11/15 05:32:40;;;;;;;3.58;2.03;;;;;;;9.40;100.00;99877.81;5190007;28;20043;-70
2023/11/15 05:35:11;;;;;;;4.70;2.42;;;;;;;9.36;100.00;99881.47;5207138;28;20021;-70
2023/11/15 05:37:41;;;;;;;4.85;2.40;;;;;;;9.29;100.00;99882.66;5204328;28;20028;-70
2023/11/15 05:40:18;;;;;;;7.20;2.53;;;;;;;9.43;100.00;99890.72;5208344;28;20355;-71
2023/11/15 05:42:49;;;;;;;4.95;2.65;;;;;;;9.38;100.00;99887.47;5205782;28;20041;-70
2023/11/15 05:45:19;;;;;;;6.25;2.67;;;;;;;9.38;100.00;99892.69;5209634;28;20363;-70
2023/11/15 05:47:50;;;;;;;4.57;2.40;;;;;;;9.34;100.00;99902.38;5206212;28;20063;-70
2023/11/15 05:50:20;;;;;;;4.38;2.10;;;;;;;9.33;100.00;99910.28;5208745;28;20037;-71
2023/11/15 05:52:52;;;;;;;6.20;3.13;;;;;;;9.43;100.00;99914.19;5198544;28;20106;-70
2023/11/15 05:55:22;;;;;;;5.65;2.63;;;;;;;9.38;100.00;99918.75;5209827;28;20029;-71
2023/11/15 05:57:53;;;;;;;5.75;2.95;;;;;;;9.48;100.00;99923.53;5208360;28;20038;-70
2023/11/15 06:00:23;;;;;;;7.25;2.72;;;;;;;9.49;100.00;99924.38;5209034;28;20021;-71
2023/11/15 06:02:53;;;;;;;4.47;2.75;;;;;;;9.44;100.00;99935.00;5204226;28;20048;-70
2023/11/15 06:05:24;;;;;;;5.95;2.67;;;;;;;9.40;100.00;99928.22;5202795;28;20109;-70
2023/11/15 06:07:55;;;;;;;4.85;2.95;;;;;;;9.36;100.00;99941.44;5205507;28;20407;-70
2023/11/15 06:10:27;;;;;;;5.03;2.78;;;;;;;9.34;100.00;99944.09;5207625;28;20033;-70
2023/11/15 06:12:58;;;;;;;7.00;2.38;;;;;;;9.44;100.00;99945.44;5205722;28;20029;-71
2023/11/15 06:15:28;;;;;;;6.45;2.95;;;;;;;9.46;100.00;99948.00;5203063;28;20408;-71
2023/11/15 06:17:58;;;;;;;5.10;2.50;;;;;;;9.34;100.00;99944.09;5207957;28;20503;-70
2023/11/15 06:20:29;;;;;;;7.13;2.55;;;;;;;9.36;100.00;99947.50;5208473;28;20112;-70
2023/11/15 06:23:00;;;;;;;4.35;2.40;;;;;;;9.32;100.00;99955.53;5206267;28;20029;-71
2023/11/15 06:25:32;;;;;;;6.15;2.47;;;;;;;9.27;100.00;99953.09;5208481;28;20025;-71
2023/11/15 06:28:03;;;;;;;4.50;2.35;;;;;;;9.30;100.00;99962.56;5203664;28;20033;-70
2023/11/15 06:30:34;;;;;;;5.88;2.40;;;;;;;9.27;100.00;99965.25;5206681;28;20021;-71
2023/11/15 06:33:04;;;;;;;4.40;2.28;;;;;;;9.22;100.00;99972.44;5189544;28;20124;-72
2023/11/15 06:35:35;;;;;;;5.90;2.67;;;;;;;9.28;100.00;99975.63;5207312;28;20017;-70
2023/11/15 06:38:05;;;;;;;4.28;2.42;;;;;;;9.26;100.00;99980.06;5205356;28;20049;-71
2023/11/15 06:40:36;;;;;;;5.07;2.33;;;;;;;9.25;100.00;99987.94;5207232;28;20124;-71
2023/11/15 06:43:06;;;;;;;5.18;2.58;;;;;;;9.16;100.00;99996.97;5204869;28;20602;-71
2023/11/15 06:45:36;;;;;;;4.35;2.15;;;;;;;9.29;100.00;100002.56;5206427;28;20024;-71
2023/11/15 06:48:07;;;;;;;4.68;2.53;;;;;;;9.28;100.00;100006.09;5203220;28;20156;-71
2023/11/15 06:50:37;;;;;;;6.78;2.70;;;;;;;9.32;100.00;100007.66;5209438;28;20025;-71
2023/11/15 06:53:07;;;;;;;5.00;3.10;;;;;;;9.31;100.00;100005.97;5206285;28;21635;-70
2023/11/15 06:55:38;;;;;;;6.28;2.65;;;;;;;9.27;100.00;100014.78;5209078;28;20036;-71
2023/11/15 06:58:08;;;;;;;6.55;3.10;;;;;;;9.29;100.00;100013.00;5201823;28;20613;-70
2023/11/15 07:00:39;;;;;;;5.85;2.60;;;;;;;9.26;100.00;100023.53;5205235;28;20035;-71
2023/11/15 07:03:12;;;;;;;5.85;3.28;;;;;;;9.34;100.00;100021.50;5203296;28;20299;-70
2023/11/15 07:05:44;;;;;;;6.28;3.28;;;;;;;9.39;100.00;100035.19;5206918;28;20017;-71
2023/11/15 07:08:16;;;;;;;7.20;3.58;;;;;;;9.31;100.00;100042.47;5204319;28;20063;-71
2023/11/15 07:10:46;;;;;;;6.03;3.30;;;;;;;9.28;100.00;100045.22;5204368;28;20040;-70
2023/11/15 07:13:17;;;;;;;10.63;3.22;;;;;;;9.36;100.00;100049.22;5205383;28;20109;-70
2023/11/15 07:15:49;;;;;;;6.38;3.40;;;;;;;9.37;100.00;100052.66;5204781;28;20083;-70
2023/11/15 07:18:21;;;;;;;7.80;3.63;;;;;;;9.44;100.00;100067.13;5207169;28;20430;-71
2023/11/15 07:20:51;;;;;;;8.50;3.58;;;;;;;9.50;100.00;100070.38;5205273;28;20655;-70
2023/11/15 07:23:22;;;;;;;6.75;3.30;;;;;;;9.41;100.00;100077.69;5209891;28;20273;-70
2023/11/15 07:25:55;;;;;;;6.65;3.33;;;;;;;9.47;100.00;100080.91;5206118;28;20036;-70
2023/11/15 07:28:26;;;;;;;6.78;3.03;;;;;;;9.42;100.00;100087.22;5208935;28;20033;-70
2023/11/15 07:30:56;;;;;;;7.70;3.13;;;;;;;9.37;100.00;100081.34;5188615;28;20017;-70
2023/11/15 07:33:26;;;;;;;7.05;2.83;;;;;;;9.43;100.00;100088.91;5207898;28;20029;-70
2023/11/15 07:35:56;;;;;;;4.70;2.55;;;;;;;9.54;100.00;100097.19;5206928;28;20124;-70
2023/11/15 07:38:27;;;;;;;8.05;4.15;;;;;;;9.52;100.00;100091.19;5209716;28;20262;-71
2023/11/15 07:40:57;;;;;;;10.35;4.82;;;;;;;9.49;100.00;100099.13;5206078;28;20037;-70
2023/11/15 07:43:27;;;;;;;10.50;3.60;;;;;;;9.41;100.00;100104.63;5209836;28;20492;-70
2023/11/15 07:45:59;;;;;;;7.25;3.38;;;;;;;9.54;100.00;100108.47;5229011;22;20061;-73
2023/11/15 07:48:30;;;;;;;8.07;3.28;;;;;;;9.57;100.00;100117.94;5207659;28;20028;-73
2023/11/15 07:51:03;;;;;;;7.38;3.28;;;;;;;9.67;100.00;100109.69;5207040;28;20033;-73
2023/11/15 07:53:33;;;;;;;6.18;3.40;;;;;;;9.73;100.00;100119.03;5208764;28;20059;-73
2023/11/15 07:56:06;;;;;;;8.45;3.05;;;;;;;9.96;100.00;100122.44;5190742;28;20026;-71
2023/11/15 07:58:37;;;;;;;6.57;3.38;;;;;;;9.80;100.00;100118.72;5211277;28;20395;-73
2023/11/15 08:01:09;;;;;;;6.15;3.30;;;;;;;10.00;100.00;100123.16;5211496;28;20324;-72
2023/11/15 08:03:40;;;;;;;9.75;3.75;;;;;;;10.30;100.00;100121.91;5213613;28;20028;-71
2023/11/15 08:06:11;;;;;;;7.05;3.92;;;;;;;10.31;100.00;100128.88;5213193;28;20045;-72
2023/11/15 08:08:42;;;;;;;10.13;4.03;;;;;;;10.30;100.00;100132.38;5214130;28;20486;-72
2023/11/15 08:11:13;;;;;;;6.07;3.65;;;;;;;10.12;100.00;100133.13;5197230;28;20017;-73
2023/11/15 08:13:43;;;;;;;7.80;3.50;;;;;;;10.26;100.00;100138.63;5212054;28;20028;-73
2023/11/15 08:16:15;;;;;;;12.07;4.18;;;;;;;10.46;100.00;100138.66;5211589;28;20433;-73
2023/11/15 08:18:46;;;;;;;8.45;3.33;;;;;;;10.52;100.00;100143.63;5210556;28;20107;-74
2023/11/15 08:21:16;;;;;;;7.03;3.25;;;;;;;10.46;100.00;100138.66;5212218;28;20057;-74
2023/11/15 08:23:47;;;;;;;6.90;3.38;;;;;;;10.47;100.00;100146.44;5195117;28;20067;-72
2023/11/15 08:26:19;;;;;;;9.25;3.67;;;;;;;11.19;100.00;100143.22;5195516;28;20095;-73
2023/11/15 08:28:49;;;;;;;9.70;3.40;;;;;;;11.13;100.00;100154.81;5212333;28;20025;-74
2023/11/15 08:31:23;;;;;;;8.85;3.78;;;;;;;10.90;100.00;100155.91;5211303;28;20096;-73
2023/11/15 08:33:53;;;;;;;9.55;3.88;;;;;;;10.67;100.00;100164.72;5210459;28;20087;-73
2023/11/15 08:36:23;;;;;;;9.45;4.10;;;;;;;10.62;100.00;100160.59;5210702;28;20025;-73
2023/11/15 08:38:54;;;;;;;10.25;3.95;;;;;;;10.52;100.00;100164.53;5212983;28;20434;-73
2023/11/15 08:41:24;;;;;;;9.10;4.00;;;;;;;10.41;100.00;100157.16;5194512;28;20112;-69
2023/11/15 08:43:54;;;;;;;8.70;4.18;;;;;;;10.34;100.00;100154.84;5211470;28;20521;-73
2023/11/15 08:46:26;;;;;;;8.00;4.03;;;;;;;10.26;100.00;100152.56;5194210;28;20096;-71
2023/11/15 08:48:59;;;;;;;8.38;4.15;;;;;;;10.22;100.00;100156.22;5210280;28;20115;-73
2023/11/15 08:51:32;;;;;;;12.82;5.20;;;;;;;10.37;100.00;100158.16;5195093;28;20487;-73
2023/11/15 08:54:02;;;;;;;9.35;3.92;;;;;;;10.47;100.00;100166.47;5209004;28;20116;-72
2023/11/15 08:56:33;;;;;;;7.88;4.20;;;;;;;10.42;100.00;100173.66;5213593;28;20107;-73
2023/11/15 08:59:04;;;;;;;12.85;4.50;;;;;;;10.41;100.00;100179.78;5192243;28;20040;-73
2023/11/15 09:01:34;;;;;;;12.63;5.80;;;;;;;10.40;100.00;100170.25;5194946;28;20502;-73
2023/11/15 09:04:05;;;;;;;9.20;4.90;;;;;;;10.50;100.00;100176.81;5209487;28;20061;-73
2023/11/15 09:06:37;;;;;;;9.75;4.53;;;;;;;10.30;100.00;100182.84;5196263;28;20029;-73
2023/11/15 09:09:08;;;;;;;10.63;4.63;;;;;;;10.49;100.00;100182.97;5210004;28;20050;-73
2023/11/15 09:11:40;;;;;;;9.85;4.57;;;;;;;10.48;100.00;100183.88;5212145;28;20021;-73
2023/11/15 09:14:10;;;;;;;13.48;4.72;;;;;;;10.38;100.00;100187.75;5188422;28;20029;-73
2023/11/15 09:16:42;;;;;;;10.43;5.38;;;;;;;10.61;100.00;100191.13;5205139;28;20541;-73
2023/11/15 09:19:16;;;;;;;9.40;4.43;;;;;;;10.56;100.00;100197.44;5188094;28;20025;-73
2023/11/15 09:21:47;;;;;;;10.27;4.63;;;;;;;10.57;100.00;100194.78;5211220;28;20032;-73
2023/11/15 09:24:18;;;;;;;7.65;4.22;;;;;;;10.51;100.00;100199.41;5201974;28;20022;-72
2023/11/15 09:26:48;;;;;;;7.47;4.20;;;;;;;10.52;100.00;100207.16;5206688;28;20036;-74
2023/11/15 09:29:19;;;;;;;9.77;4.40;;;;;;;10.50;100.00;100205.56;5205364;28;20033;-74
2023/11/15 09:31:50;;;;;;;10.20;4.50;;;;;;;10.60;100.00;100202.50;5187875;28;20033;-71
2023/11/15 09:34:20;;;;;;;14.38;4.25;;;;;;;10.54;100.00;100202.72;5204983;28;20462;-73
2023/11/15 09:36:51;;;;;;;8.38;4.18;;;;;;;10.70;100.00;100208.19;5206363;28;20478;-73
2023/11/15 09:39:21;;;;;;;13.43;4.65;;;;;;;10.69;100.00;100206.50;5202294;28;20858;-72
2023/11/15 09:41:55;;;;;;;10.15;4.43;;;;;;;10.83;100.00;100212.81;5205557;28;20083;-72
2023/11/15 09:44:26;;;;;;;10.85;3.55;;;;;;;10.81;100.00;100213.78;5200847;28;20048;-73
2023/11/15 09:46:58;;;;;;;12.80;4.95;;;;;;;10.95;100.00;100209.69;5202456;28;20030;-73
2023/11/15 09:49:31;;;;;;;9.65;3.63;;;;;;;11.05;100.00;100213.59;5201186;28;20110;-73
2023/11/15 09:52:02;;;;;;;9.40;4.20;;;;;;;11.02;100.00;100213.75;5203052;28;20040;-72
2023/11/15 09:54:33;;;;;;;9.60;4.05;;;;;;;11.06;100.00;100216.16;5205001;28;20451;-72
2023/11/15 09:57:03;;;;;;;19.33;8.85;;;;;;;11.23;100.00;100213.66;5202115;28;20120;-72
2023/11/15 09:59:33;;;;;;;16.30;7.57;;;;;;;11.26;100.00;100213.53;5205105;28;20025;-72
2023/11/15 10:02:04;;;;;;;18.48;8.75;;;;;;;11.32;100.00;100215.03;5186236;28;20037;-72
2023/11/15 10:04:35;;;;;;;9.20;5.47;;;;;;;11.25;100.00;100219.66;5201915;28;20032;-74
2023/11/15 10:07:07;;;;;;;22.60;8.00;;;;;;;11.11;100.00;100218.59;5190080;28;20108;-74
2023/11/15 10:09:39;;;;;;;13.63;7.65;;;;;;;11.26;100.00;100223.97;5189238;28;20035;-74
2023/11/15 10:12:10;;;;;;;20.17;7.38;;;;;;;11.13;100.00;100214.97;5201336;28;20013;-73
2023/11/15 10:14:52;;;;;;;35.95;14.48;;;;;;;11.08;100.00;100214.31;5204949;28;20075;-73
2023/11/15 10:17:39;;;;;;;19.85;8.98;;;;;;;11.08;100.00;100219.56;5203013;28;20029;-74
2023/11/15 10:20:25;;;;;;;19.45;8.25;;;;;;;11.07;100.00;100220.47;5201364;28;20117;-73
2023/11/15 10:22:57;;;;;;;;;;;;;;;11.00;100.00;100219.97;5204167;28;20053;-73
2023/11/15 10:25:27;;;;;;;10.50;5.03;;;;;;;10.92;100.00;100222.03;5201158;28;19913;-73
2023/11/15 10:28:00;;;;;;;6.55;3.70;;;;;;;10.93;100.00;100218.50;5203753;28;20033;-72
2023/11/15 10:30:32;;;;;;;18.15;7.28;;;;;;;11.08;100.00;100230.00;5201666;28;20366;-74
2023/11/15 10:33:18;;;;;;;9.05;3.75;;;;;;;11.05;100.00;100230.16;5199666;28;20025;-71
2023/11/15 10:35:48;;;;;;;10.50;4.50;;;;;;;11.02;100.00;100239.88;5204446;28;20063;-71
2023/11/15 10:38:19;;;;;;;10.43;4.88;;;;;;;11.12;100.00;100231.56;5204500;28;20079;-73
2023/11/15 10:40:52;;;;;;;8.77;3.28;;;;;;;11.08;100.00;100229.19;5188682;28;20028;-74
2023/11/15 10:43:23;;;;;;;10.73;5.07;;;;;;;11.32;100.00;100233.34;5204747;28;20529;-71
2023/11/15 10:45:56;;;;;;;9.60;4.75;;;;;;;11.42;100.00;100227.63;5189286;28;20043;-73
2023/11/15 10:48:33;;;;;;;12.15;6.10;;;;;;;11.41;100.00;100225.09;5206855;28;20020;-72
2023/11/15 10:51:13;;;;;;;9.85;3.78;;;;;;;11.63;100.00;100234.53;5201788;28;20064;-74
2023/11/15 10:53:44;;;;;;;8.57;3.63;;;;;;;11.59;100.00;100229.53;5202654;28;20743;-73
2023/11/15 10:56:19;;;;;;;9.07;3.83;;;;;;;11.49;100.00;100231.69;5204278;28;20479;-70
2023/11/15 10:58:52;;;;;;;10.65;4.57;;;;;;;11.43;100.00;100231.94;5206393;28;20032;-72
2023/11/15 11:01:22;;;;;;;8.90;4.05;;;;;;;11.47;100.00;100232.66;5207354;28;20037;-73
2023/11/15 11:03:55;;;;;;;9.57;4.75;;;;;;;11.45;100.00;100235.34;5204726;28;20561;-74
2023/11/15 11:06:58;;;;;;;10.63;5.30;;;;;;;11.56;100.00;100230.50;5190685;28;20029;-72
2023/11/15 11:09:57;;;;;;;7.53;5.18;;;;;;;11.63;100.00;100231.91;5197373;28;20060;-73
2023/11/15 11:12:30;;;;;;;10.80;5.63;;;;;;;11.41;100.00;100231.16;5205350;28;20385;-73
2023/11/15 11:15:19;;;;;;;8.13;4.97;;;;;;;11.37;100.00;100227.00;5203257;28;20032;-73
2023/11/15 11:18:03;;;;;;;9.70;5.00;;;;;;;11.31;100.00;100235.09;5203508;28;20025;-73
2023/11/15 11:20:36;;;;;;;9.82;5.07;;;;;;;11.43;100.00;100238.97;5188153;28;21167;-73
2023/11/15 11:23:22;;;;;;;9.38;5.85;;;;;;;11.39;100.00;100242.59;5206722;28;20127;-74
2023/11/15 11:25:55;;;;;;;25.58;10.65;;;;;;;11.42;100.00;100234.66;5189410;28;20025;-73
2023/11/15 11:28:27;;;;;;;11.70;5.93;;;;;;;11.39;100.00;100246.09;5204351;28;20035;-72
2023/11/15 11:31:17;;;;;;;12.05;5.55;;;;;;;11.31;100.00;100242.94;5206221;28;20025;-73
2023/11/15 11:34:08;;;;;;;12.95;5.80;;;;;;;11.36;100.00;100235.75;5205308;28;20028;-73
2023/11/15 11:36:57;;;;;;;14.38;7.28;;;;;;;11.42;100.00;100245.94;5207214;28;20021;-70
2023/11/15 11:39:46;;;;;;;15.48;6.60;;;;;;;11.34;100.00;100242.81;5191995;28;20063;-73
2023/11/15 11:42:24;;;;;;;17.77;7.63;;;;;;;11.43;100.00;100234.56;5209308;28;20040;-69
2023/11/15 11:44:55;;;;;;;13.23;5.00;;;;;;;11.21;100.00;100241.66;5210808;28;20079;-73